Time;durP1;ratioP1;P1;durP2;ratioP2;P2;SDS_P1;SDS_P2;PMS_P1;PMS_P2;Temp;Humidity;BMP_temperature;BMP_pressure;BME280_temperature;BME280_humidity;BME280_pressure;Samples;Min_cycle;Max_cycle;Signal;HPM_P1;HPM_P2
2023/03/19 00:00:10;;;;;;;37.78;15.23;;;;;;;;;;4987634;28;20050;-60
2023/03/19 00:02:48;;;;;;;32.25;14.57;;;;;;;;;;4986421;28;20141;-61
2023/03/19 00:05:16;;;;;;;40.75;16.52;;;;;;;;;;4986711;28;20082;-60
2023/03/19 00:07:50;;;;;;;34.92;15.57;;;;;;;;;;4992557;28;20056;-60
2023/03/19 00:10:17;;;;;;;40.03;16.17;;;;;;;;;;4986994;28;20054;-60
2023/03/19 00:12:44;;;;;;;41.78;16.73;;;;;;;;;;4988373;28;20058;-68
2023/03/19 00:15:18;;;;;;;36.13;16.00;;;;;;;;;;4986631;28;20054;-68
2023/03/19 00:17:45;;;;;;;55.03;16.67;;;;;;;;;;4985020;28;20434;-67
2023/03/19 00:20:20;;;;;;;50.83;17.40;;;;;;;;;;4984526;28;20057;-68
2023/03/19 00:22:48;;;;;;;47.55;17.42;;;;;;;;;;4970744;28;20080;-54
2023/03/19 00:25:21;;;;;;;47.33;17.95;;;;;;;;;;4986017;28;20062;-69
2023/03/19 00:27:48;;;;;;;73.80;19.40;;;;;;;;;;4989197;28;20409;-68
2023/03/19 00:30:15;;;;;;;70.95;19.13;;;;;;;;;;4984956;28;20105;-69
2023/03/19 00:32:49;;;;;;;40.50;15.30;;;;;;;;;;4987029;28;20049;-68
2023/03/19 00:35:16;;;;;;;47.63;16.20;;;;;;;;;;4987861;28;20081;-68
2023/03/19 00:37:50;;;;;;;88.50;20.40;;;;;;;;;;4991577;28;21742;-68
2023/03/19 00:40:17;;;;;;;42.95;13.50;;;;;;;;;;4983579;28;20054;-68
2023/03/19 00:42:44;;;;;;;40.55;12.80;;;;;;;;;;4986111;28;20242;-61
2023/03/19 00:45:19;;;;;;;42.63;14.68;;;;;;;;;;4987523;28;20141;-63
2023/03/19 00:47:46;;;;;;;46.28;14.05;;;;;;;;;;4981691;28;20049;-61
2023/03/19 00:50:13;;;;;;;33.65;13.35;;;;;;;;;;4991036;28;20056;-62
2023/03/19 00:52:47;;;;;;;37.42;13.88;;;;;;;;;;4989066;28;20746;-56
2023/03/19 00:55:14;;;;;;;42.08;15.75;;;;;;;;;;4989977;28;20108;-55
2023/03/19 00:57:55;;;;;;;107.10;21.05;;;;;;;;;;4989340;28;20422;-56
2023/03/19 01:00:29;;;;;;;36.25;12.45;;;;;;;;;;4987871;28;20149;-56
2023/03/19 01:03:03;;;;;;;50.92;15.57;;;;;;;;;;4985879;28;20154;-59
2023/03/19 01:05:30;;;;;;;52.28;15.63;;;;;;;;;;4986986;28;20056;-54
2023/03/19 01:07:58;;;;;;;32.22;11.32;;;;;;;;;;4989697;28;20149;-59
2023/03/19 01:10:33;;;;;;;57.42;15.15;;;;;;;;;;4986954;28;20109;-62
2023/03/19 01:13:01;;;;;;;54.17;15.85;;;;;;;;;;4987729;28;20146;-62
2023/03/19 01:15:35;;;;;;;103.82;21.00;;;;;;;;;;4985619;28;20062;-63
2023/03/19 01:18:02;;;;;;;39.70;16.10;;;;;;;;;;4990290;28;20141;-62
2023/03/19 01:20:30;;;;;;;57.10;15.77;;;;;;;;;;4987219;28;20121;-53
2023/03/19 01:23:05;;;;;;;50.55;14.52;;;;;;;;;;4996568;28;20505;-59
2023/03/19 01:25:33;;;;;;;44.17;13.90;;;;;;;;;;4988618;28;20043;-58
2023/03/19 01:28:06;;;;;;;69.90;15.38;;;;;;;;;;4991265;28;20474;-60
2023/03/19 01:30:34;;;;;;;49.55;13.27;;;;;;;;;;4989224;28;20046;-60
2023/03/19 01:33:01;;;;;;;48.22;13.70;;;;;;;;;;4987922;28;20050;-60
2023/03/19 01:35:35;;;;;;;55.20;15.82;;;;;;;;;;4985274;28;20054;-59
2023/03/19 01:38:06;;;;;;;;;;;;;;;;;;4992542;28;20124;-66
2023/03/19 01:40:47;;;;;;;76.32;15.82;;;;;;;;;;4985352;28;19929;-61
2023/03/19 01:43:19;;;;;;;45.08;15.80;;;;;;;;;;4989866;28;20061;-60
2023/03/19 01:46:13;;;;;;;72.80;18.17;;;;;;;;;;4982208;28;20051;-59
2023/03/19 01:48:56;;;;;;;55.10;14.75;;;;;;;;;;4984694;28;20057;-61
2023/03/19 01:51:32;;;;;;;86.95;17.15;;;;;;;;;;4990637;28;20521;-50
2023/03/19 01:54:08;;;;;;;74.18;16.52;;;;;;;;;;4986738;28;20054;-48
2023/03/19 01:56:37;;;;;;;79.95;17.00;;;;;;;;;;4987043;28;20057;-53
2023/03/19 01:59:47;;;;;;;77.60;17.33;;;;;;;;;;4987717;28;20650;-50
2023/03/19 02:02:23;;;;;;;72.60;17.48;;;;;;;;;;4972786;28;20078;-48
2023/03/19 02:05:09;;;;;;;221.93;22.70;;;;;;;;;;4988609;28;20104;-53
2023/03/19 02:07:44;;;;;;;81.75;17.10;;;;;;;;;;4988051;28;20203;-59
2023/03/19 02:10:14;;;;;;;51.55;14.98;;;;;;;;;;4983638;28;20054;-57
2023/03/19 02:12:42;;;;;;;84.03;18.08;;;;;;;;;;4984791;28;20610;-57
2023/03/19 02:15:15;;;;;;;133.02;18.70;;;;;;;;;;4987273;28;20137;-58
2023/03/19 02:17:43;;;;;;;160.25;18.50;;;;;;;;;;4985728;28;20516;-54
2023/03/19 02:20:17;;;;;;;323.83;23.48;;;;;;;;;;4988092;28;20150;-57
2023/03/19 02:23:11;;;;;;;98.03;16.80;;;;;;;;;;4986594;28;20137;-57
2023/03/19 02:25:45;;;;;;;186.40;19.20;;;;;;;;;;4965970;28;20533;-57
2023/03/19 02:28:15;;;;;;;373.52;24.17;;;;;;;;;;4986701;28;20149;-57
2023/03/19 02:30:43;;;;;;;452.63;23.80;;;;;;;;;;4987793;28;20054;-59
2023/03/19 02:33:18;;;;;;;698.20;36.45;;;;;;;;;;4987709;28;20185;-58
2023/03/19 02:35:46;;;;;;;668.08;32.45;;;;;;;;;;4984185;28;20609;-51
2023/03/19 02:38:21;;;;;;;160.20;16.20;;;;;;;;;;4990462;28;20557;-48
2023/03/19 02:40:52;;;;;;;148.60;14.10;;;;;;;;;;4967496;28;20058;-50
2023/03/19 02:43:20;;;;;;;340.33;20.35;;;;;;;;;;4983837;28;21120;-52
2023/03/19 02:45:54;;;;;;;225.20;16.27;;;;;;;;;;4984910;28;20136;-58
2023/03/19 02:48:21;;;;;;;98.55;13.45;;;;;;;;;;4988328;28;20567;-60
2023/03/19 02:51:02;;;;;;;329.17;20.83;;;;;;;;;;4988120;28;20125;-69
2023/03/19 02:53:29;;;;;;;187.57;16.33;;;;;;;;;;4983850;28;20058;-69
2023/03/19 02:56:03;;;;;;;304.55;18.23;;;;;;;;;;4984337;28;20054;-68
2023/03/19 02:58:44;;;;;;;319.38;20.02;;;;;;;;;;4980575;28;20170;-68
2023/03/19 03:01:25;;;;;;;108.22;13.82;;;;;;;;;;4977096;28;20126;-68
2023/03/19 03:03:52;;;;;;;255.60;17.90;;;;;;;;;;4982968;28;20417;-68
2023/03/19 03:06:26;;;;;;;450.77;21.33;;;;;;;;;;4979697;28;20139;-68
2023/03/19 03:08:54;;;;;;;315.35;18.30;;;;;;;;;;4976125;28;20814;-58
2023/03/19 03:11:21;;;;;;;393.45;18.48;;;;;;;;;;4981533;28;20063;-55
2023/03/19 03:13:56;;;;;;;480.35;21.85;;;;;;;;;;4980708;28;20505;-56
2023/03/19 03:16:24;;;;;;;354.27;19.17;;;;;;;;;;4979746;28;20090;-55
2023/03/19 03:18:58;;;;;;;282.35;15.68;;;;;;;;;;4980873;28;20066;-57
2023/03/19 03:21:25;;;;;;;262.75;16.67;;;;;;;;;;4980474;28;20077;-51
2023/03/19 03:23:53;;;;;;;250.80;14.50;;;;;;;;;;4972086;28;20573;-49
2023/03/19 03:26:26;;;;;;;149.15;14.73;;;;;;;;;;4976960;28;20149;-59
2023/03/19 03:28:53;;;;;;;210.38;17.23;;;;;;;;;;4974975;28;20050;-61
2023/03/19 03:31:21;;;;;;;274.95;15.68;;;;;;;;;;4974359;28;20043;-61
2023/03/19 03:33:54;;;;;;;356.80;21.95;;;;;;;;;;4976657;28;20081;-61
2023/03/19 03:36:22;;;;;;;83.82;13.38;;;;;;;;;;4961980;28;20142;-61
2023/03/19 03:38:56;;;;;;;125.22;14.88;;;;;;;;;;4977394;28;20072;-61
2023/03/19 03:41:23;;;;;;;161.70;18.08;;;;;;;;;;4981664;28;20964;-61
2023/03/19 03:43:51;;;;;;;225.57;20.20;;;;;;;;;;4978754;28;20553;-62
2023/03/19 03:46:25;;;;;;;142.32;16.75;;;;;;;;;;4979477;28;20051;-62
2023/03/19 03:48:52;;;;;;;442.77;24.58;;;;;;;;;;4979206;28;20054;-62
2023/03/19 03:51:26;;;;;;;267.38;18.67;;;;;;;;;;4970981;28;20077;-62
2023/03/19 03:53:53;;;;;;;497.35;24.95;;;;;;;;;;4977591;28;20072;-61
2023/03/19 03:56:20;;;;;;;137.60;11.65;;;;;;;;;;4980480;28;20050;-60
2023/03/19 03:59:01;;;;;;;127.82;15.35;;;;;;;;;;4970739;28;20078;-60
2023/03/19 04:01:28;;;;;;;70.40;13.07;;;;;;;;;;4964328;28;20057;-55
2023/03/19 04:04:02;;;;;;;548.95;27.88;;;;;;;;;;4967896;28;20046;-59
2023/03/19 04:06:30;;;;;;;396.05;21.45;;;;;;;;;;4969078;28;20578;-60
2023/03/19 04:08:57;;;;;;;295.70;16.25;;;;;;;;;;4969954;28;20050;-59
2023/03/19 04:11:30;;;;;;;218.13;15.77;;;;;;;;;;4972696;28;20086;-60
2023/03/19 04:13:57;;;;;;;139.13;15.68;;;;;;;;;;4970428;28;20150;-59
2023/03/19 04:16:32;;;;;;;156.07;14.43;;;;;;;;;;4973217;28;20050;-60
2023/03/19 04:18:59;;;;;;;121.28;14.60;;;;;;;;;;4972819;28;20054;-60
2023/03/19 04:21:27;;;;;;;109.20;14.20;;;;;;;;;;4976265;28;20063;-68
2023/03/19 04:24:01;;;;;;;57.17;11.18;;;;;;;;;;4972585;28;20120;-59
2023/03/19 04:26:28;;;;;;;58.97;11.73;;;;;;;;;;4971863;28;20082;-55
2023/03/19 04:29:02;;;;;;;49.13;11.15;;;;;;;;;;4967519;28;20073;-60
2023/03/19 04:31:29;;;;;;;84.47;15.65;;;;;;;;;;4964068;28;20474;-59
2023/03/19 04:33:57;;;;;;;56.80;13.30;;;;;;;;;;4970215;28;20438;-59
2023/03/19 04:36:32;;;;;;;73.13;14.45;;;;;;;;;;4973490;28;20047;-54
2023/03/19 04:38:59;;;;;;;74.43;13.80;;;;;;;;;;4978137;28;20074;-59
2023/03/19 04:41:33;;;;;;;142.13;18.83;;;;;;;;;;4973384;28;20058;-58
2023/03/19 04:44:01;;;;;;;123.78;17.75;;;;;;;;;;4971045;28;20050;-59
2023/03/19 04:46:28;;;;;;;139.68;18.17;;;;;;;;;;4967322;28;20077;-53
2023/03/19 04:49:02;;;;;;;78.80;14.63;;;;;;;;;;4972222;28;20065;-68
2023/03/19 04:51:29;;;;;;;97.78;15.30;;;;;;;;;;4974842;28;20510;-60
2023/03/19 04:54:04;;;;;;;182.40;19.25;;;;;;;;;;4974902;28;20737;-62
2023/03/19 04:56:31;;;;;;;102.68;15.15;;;;;;;;;;4973160;28;20077;-62
2023/03/19 04:58:59;;;;;;;194.70;17.25;;;;;;;;;;4983235;28;20101;-62
2023/03/19 05:01:32;;;;;;;104.68;15.10;;;;;;;;;;4984882;28;20569;-62
2023/03/19 05:04:00;;;;;;;94.88;14.98;;;;;;;;;;4989847;28;20047;-62
2023/03/19 05:06:35;;;;;;;82.93;13.90;;;;;;;;;;4987920;28;20077;-62
2023/03/19 05:09:02;;;;;;;;;;;;;;;;;;4988945;28;20046;-56
2023/03/19 05:11:29;;;;;;;107.22;14.73;;;;;;;;;;4991698;28;19937;-53
2023/03/19 05:14:03;;;;;;;72.57;13.38;;;;;;;;;;4985657;28;20058;-58
2023/03/19 05:16:30;;;;;;;53.25;12.48;;;;;;;;;;4983855;28;20137;-56
2023/03/19 05:19:04;;;;;;;84.38;15.75;;;;;;;;;;4992225;28;20054;-56
2023/03/19 05:21:31;;;;;;;89.25;14.82;;;;;;;;;;4966867;28;20062;-60
2023/03/19 05:23:59;;;;;;;84.10;16.33;;;;;;;;;;4987956;28;20580;-60
2023/03/19 05:26:32;;;;;;;68.47;14.57;;;;;;;;;;4992319;28;20137;-59
2023/03/19 05:29:00;;;;;;;63.30;14.35;;;;;;;;;;4986303;28;20421;-58
2023/03/19 05:31:33;;;;;;;63.83;14.70;;;;;;;;;;4982319;28;20498;-61
2023/03/19 05:34:00;;;;;;;56.45;14.18;;;;;;;;;;4988912;28;20053;-60
2023/03/19 05:36:28;;;;;;;58.10;14.90;;;;;;;;;;4988330;28;20277;-62
2023/03/19 05:39:02;;;;;;;57.90;14.52;;;;;;;;;;4992215;28;20057;-62
2023/03/19 05:41:30;;;;;;;;;;;;;;;;;;4983687;28;20450;-62
2023/03/19 05:44:03;;;;;;;55.35;13.98;;;;;;;;;;4991215;28;19926;-62
2023/03/19 05:46:31;;;;;;;46.35;13.98;;;;;;;;;;4986735;28;20071;-57
2023/03/19 05:48:58;;;;;;;45.58;14.40;;;;;;;;;;4985251;28;20572;-69
2023/03/19 05:51:32;;;;;;;56.20;15.30;;;;;;;;;;4987239;28;20161;-59
2023/03/19 05:53:59;;;;;;;68.95;15.93;;;;;;;;;;4989729;28;20450;-61
2023/03/19 05:56:33;;;;;;;40.10;13.45;;;;;;;;;;4988056;28;20054;-58
2023/03/19 05:59:13;;;;;;;38.92;12.55;;;;;;;;;;4986811;28;20112;-60
2023/03/19 06:01:47;;;;;;;32.67;11.68;;;;;;;;;;4986518;28;20503;-60
2023/03/19 06:04:15;;;;;;;37.55;12.20;;;;;;;;;;4988324;28;20053;-58
2023/03/19 06:06:42;;;;;;;;;;;;;;;;;;4981277;28;20141;-58
2023/03/19 06:09:16;;;;;;;27.60;10.48;;;;;;;;;;4990166;28;20017;-56
2023/03/19 06:11:44;;;;;;;37.22;12.90;;;;;;;;;;4989817;28;20142;-52
2023/03/19 06:14:11;;;;;;;35.83;12.25;;;;;;;;;;4988548;28;20234;-56
2023/03/19 06:16:44;;;;;;;25.52;11.30;;;;;;;;;;4981548;28;20294;-48
2023/03/19 06:19:19;;;;;;;26.42;10.88;;;;;;;;;;4983103;28;20470;-68
2023/03/19 06:21:47;;;;;;;25.77;10.32;;;;;;;;;;4987580;28;20150;-67
2023/03/19 06:24:14;;;;;;;21.80;9.50;;;;;;;;;;4991185;28;20500;-68
2023/03/19 06:26:48;;;;;;;25.83;10.30;;;;;;;;;;4989016;28;20399;-68
2023/03/19 06:29:15;;;;;;;23.05;9.00;;;;;;;;;;4986050;28;20055;-68
2023/03/19 06:31:42;;;;;;;25.00;10.23;;;;;;;;;;4984521;28;20505;-68
2023/03/19 06:34:17;;;;;;;21.65;9.30;;;;;;;;;;4989616;28;20053;-48
2023/03/19 06:36:44;;;;;;;18.35;8.55;;;;;;;;;;4987735;28;20080;-49
2023/03/19 06:39:18;;;;;;;24.48;9.43;;;;;;;;;;4986809;28;20088;-49
2023/03/19 06:41:45;;;;;;;20.15;8.43;;;;;;;;;;4985537;28;20045;-47
2023/03/19 06:44:12;;;;;;;16.45;7.90;;;;;;;;;;4985560;28;20046;-48
2023/03/19 06:46:46;;;;;;;15.73;7.43;;;;;;;;;;4984574;28;20089;-59
2023/03/19 06:49:14;;;;;;;16.98;7.90;;;;;;;;;;4984865;28;20056;-54
2023/03/19 06:51:41;;;;;;;;;;;;;;;;;;4988772;28;21700;-57
2023/03/19 06:54:15;;;;;;;22.77;9.70;;;;;;;;;;4983541;28;20550;-55
2023/03/19 06:56:42;;;;;;;15.70;7.22;;;;;;;;;;4987337;28;20161;-57
2023/03/19 06:59:29;;;;;;;22.92;8.23;;;;;;;;;;4980730;28;20137;-57
2023/03/19 07:02:04;;;;;;;17.15;7.35;;;;;;;;;;4969782;28;20593;-59
2023/03/19 07:04:38;;;;;;;16.75;7.32;;;;;;;;;;4976851;28;20147;-60
2023/03/19 07:07:05;;;;;;;17.75;7.65;;;;;;;;;;4970724;28;20057;-60
2023/03/19 07:09:33;;;;;;;15.10;7.47;;;;;;;;;;4971203;28;20185;-59
2023/03/19 07:12:07;;;;;;;14.15;7.38;;;;;;;;;;4977040;28;20061;-55
2023/03/19 07:14:34;;;;;;;14.52;7.63;;;;;;;;;;4968968;28;20608;-53
2023/03/19 07:17:08;;;;;;;16.55;7.53;;;;;;;;;;4971574;28;20054;-53
2023/03/19 07:19:36;;;;;;;19.58;8.43;;;;;;;;;;4979503;28;20074;-48
2023/03/19 07:22:04;;;;;;;13.38;6.93;;;;;;;;;;4974491;28;20121;-53
2023/03/19 07:24:37;;;;;;;16.05;7.50;;;;;;;;;;4977639;28;20133;-49
2023/03/19 07:27:04;;;;;;;15.20;7.80;;;;;;;;;;4970276;28;20570;-53
2023/03/19 07:29:38;;;;;;;13.10;6.78;;;;;;;;;;4974498;28;20169;-62
2023/03/19 07:32:06;;;;;;;14.95;6.88;;;;;;;;;;4970957;28;20143;-68
2023/03/19 07:34:33;;;;;;;11.93;6.07;;;;;;;;;;4968992;28;20499;-53
2023/03/19 07:37:07;;;;;;;12.73;6.45;;;;;;;;;;4979847;28;20052;-54
2023/03/19 07:39:34;;;;;;;9.27;5.88;;;;;;;;;;4974672;28;20062;-53
2023/03/19 07:42:01;;;;;;;12.82;7.60;;;;;;;;;;4973900;28;20051;-49
2023/03/19 07:44:35;;;;;;;12.38;7.38;;;;;;;;;;4977329;28;20141;-52
2023/03/19 07:47:02;;;;;;;11.95;6.88;;;;;;;;;;4978005;28;20046;-55
2023/03/19 07:49:53;;;;;;;10.55;6.43;;;;;;;;;;4978271;28;20058;-63
2023/03/19 07:52:20;;;;;;;13.70;7.30;;;;;;;;;;4980181;28;20137;-62
2023/03/19 07:54:54;;;;;;;13.20;6.72;;;;;;;;;;4979379;28;20066;-62
2023/03/19 07:57:21;;;;;;;15.70;8.18;;;;;;;;;;4984975;28;20054;-63
2023/03/19 07:59:49;;;;;;;11.07;6.15;;;;;;;;;;4978213;28;20058;-69
2023/03/19 08:02:29;;;;;;;10.65;6.35;;;;;;;;;;4983492;28;20056;-59
2023/03/19 08:04:57;;;;;;;11.77;6.75;;;;;;;;;;4982789;28;20046;-59
2023/03/19 08:07:31;;;;;;;10.52;6.53;;;;;;;;;;4983015;28;20054;-59
2023/03/19 08:09:59;;;;;;;12.48;6.85;;;;;;;;;;4988949;28;20154;-56
2023/03/19 08:12:38;;;;;;;12.38;7.25;;;;;;;;;;4988311;28;20049;-54
2023/03/19 08:15:19;;;;;;;9.43;5.65;;;;;;;;;;4990112;28;20150;-62
2023/03/19 08:17:47;;;;;;;10.82;6.05;;;;;;;;;;4988675;28;20402;-68
2023/03/19 08:20:21;;;;;;;8.60;5.65;;;;;;;;;;4986123;28;20409;-69
2023/03/19 08:22:49;;;;;;;10.35;5.95;;;;;;;;;;4990086;28;20069;-69
2023/03/19 08:25:17;;;;;;;8.60;5.80;;;;;;;;;;4985482;28;20429;-69
2023/03/19 08:27:50;;;;;;;8.15;5.05;;;;;;;;;;4987489;28;20058;-61
2023/03/19 08:30:17;;;;;;;8.38;5.22;;;;;;;;;;4985163;28;21170;-63
2023/03/19 08:32:51;;;;;;;7.28;5.03;;;;;;;;;;4985450;28;20492;-63
2023/03/19 08:35:19;;;;;;;6.07;4.13;;;;;;;;;;4975323;28;20061;-63
2023/03/19 08:37:46;;;;;;;6.72;4.35;;;;;;;;;;4987206;28;20050;-62
2023/03/19 08:40:20;;;;;;;8.55;5.35;;;;;;;;;;4981202;28;20141;-63
2023/03/19 08:42:47;;;;;;;7.72;4.80;;;;;;;;;;4985062;28;20398;-63
2023/03/19 08:45:15;;;;;;;7.90;5.20;;;;;;;;;;4985808;28;20106;-63
2023/03/19 08:47:49;;;;;;;7.07;4.65;;;;;;;;;;4984033;28;20498;-62
2023/03/19 08:50:17;;;;;;;7.13;4.03;;;;;;;;;;4990207;28;20117;-62
2023/03/19 08:52:50;;;;;;;6.85;4.13;;;;;;;;;;4989113;28;20064;-63
2023/03/19 08:55:18;;;;;;;5.70;3.75;;;;;;;;;;4989381;28;20050;-61
2023/03/19 08:57:45;;;;;;;5.82;4.07;;;;;;;;;;4986180;28;20145;-62
2023/03/19 09:00:26;;;;;;;4.75;3.25;;;;;;;;;;4991193;28;20059;-59
2023/03/19 09:02:53;;;;;;;3.97;3.00;;;;;;;;;;4978856;28;20153;-60
2023/03/19 09:05:27;;;;;;;4.20;2.83;;;;;;;;;;4982777;28;20057;-59
2023/03/19 09:08:01;;;;;;;3.63;2.83;;;;;;;;;;4983768;28;20081;-59
2023/03/19 09:10:35;;;;;;;5.38;2.78;;;;;;;;;;4987170;28;20065;-60
2023/03/19 09:13:09;;;;;;;4.20;3.00;;;;;;;;;;4985714;28;20126;-60
2023/03/19 09:15:36;;;;;;;3.58;2.38;;;;;;;;;;4988835;28;20083;-59
2023/03/19 09:18:04;;;;;;;3.63;2.75;;;;;;;;;;4988669;28;20146;-59
2023/03/19 09:20:38;;;;;;;3.33;2.40;;;;;;;;;;4987796;28;20399;-60
2023/03/19 09:23:05;;;;;;;3.95;2.13;;;;;;;;;;4988927;28;20060;-57
2023/03/19 09:25:33;;;;;;;3.47;2.30;;;;;;;;;;4985200;28;20047;-60
2023/03/19 09:28:06;;;;;;;2.72;1.90;;;;;;;;;;4974086;28;20185;-63
2023/03/19 09:30:33;;;;;;;5.70;2.38;;;;;;;;;;4987966;28;20046;-63
2023/03/19 09:33:00;;;;;;;3.42;2.28;;;;;;;;;;4985804;28;20050;-64
2023/03/19 09:35:37;;;;;;;4.60;2.30;;;;;;;;;;4982707;28;21497;-63
2023/03/19 09:38:04;;;;;;;3.17;2.28;;;;;;;;;;4974850;28;20051;-63
2023/03/19 09:40:41;;;;;;;3.05;1.83;;;;;;;;;;4987485;28;20060;-63
2023/03/19 09:43:20;;;;;;;2.47;1.95;;;;;;;;;;4985211;28;20125;-63
2023/03/19 09:45:54;;;;;;;2.78;2.05;;;;;;;;;;4987900;28;20498;-63
2023/03/19 09:48:43;;;;;;;2.80;1.80;;;;;;;;;;4989521;28;20050;-63
2023/03/19 09:51:14;;;;;;;3.20;2.08;;;;;;;;;;4987121;28;20544;-63
2023/03/19 09:54:03;;;;;;;2.90;2.05;;;;;;;;;;4986406;28;20054;-68
2023/03/19 09:56:32;;;;;;;1.90;1.67;;;;;;;;;;4981821;28;20145;-58
2023/03/19 09:59:15;;;;;;;1.90;1.67;;;;;;;;;;4978257;28;20063;-59
2023/03/19 10:01:52;;;;;;;2.35;1.80;;;;;;;;;;4983227;28;20130;-60
2023/03/19 10:04:38;;;;;;;2.47;1.75;;;;;;;;;;4987955;28;20057;-60
2023/03/19 10:07:15;;;;;;;1.92;1.40;;;;;;;;;;4981409;28;20065;-60
2023/03/19 10:10:22;;;;;;;2.13;1.90;;;;;;;;;;4989352;28;20053;-60
2023/03/19 10:13:07;;;;;;;1.95;1.75;;;;;;;;;;4967113;28;20129;-63
2023/03/19 10:15:43;;;;;;;1.73;1.40;;;;;;;;;;4988473;28;20070;-63
2023/03/19 10:18:21;;;;;;;3.92;2.40;;;;;;;;;;4977851;28;20144;-64
2023/03/19 10:21:00;;;;;;;3.65;3.00;;;;;;;;;;4989619;28;20125;-63
2023/03/19 10:23:42;;;;;;;3.78;2.60;;;;;;;;;;4987445;28;20064;-64
2023/03/19 10:26:20;;;;;;;5.35;2.90;;;;;;;;;;4986425;28;20061;-63
2023/03/19 10:28:57;;;;;;;4.63;3.03;;;;;;;;;;4981113;28;20145;-61
2023/03/19 10:31:43;;;;;;;5.13;3.42;;;;;;;;;;4986867;28;20145;-61
2023/03/19 10:34:11;;;;;;;7.50;3.75;;;;;;;;;;4986816;28;20087;-61
2023/03/19 10:36:45;;;;;;;6.18;3.97;;;;;;;;;;4984020;28;20502;-61
2023/03/19 10:39:15;;;;;;;7.57;4.60;;;;;;;;;;4980618;28;20129;-63
2023/03/19 10:41:48;;;;;;;7.63;4.93;;;;;;;;;;4974871;28;20082;-62
2023/03/19 10:44:25;;;;;;;5.88;4.18;;;;;;;;;;4985073;28;20046;-63
2023/03/19 10:46:59;;;;;;;5.53;4.15;;;;;;;;;;4971648;28;20051;-63
2023/03/19 10:49:26;;;;;;;5.82;3.95;;;;;;;;;;4969445;28;20145;-63
2023/03/19 10:52:01;;;;;;;5.78;4.47;;;;;;;;;;4982017;28;20068;-63
2023/03/19 10:54:29;;;;;;;8.10;5.30;;;;;;;;;;4980803;28;20137;-63
2023/03/19 10:57:20;;;;;;;9.65;4.88;;;;;;;;;;4982637;28;20047;-60
2023/03/19 10:59:47;;;;;;;7.13;5.07;;;;;;;;;;4981574;28;20153;-63
2023/03/19 11:02:31;;;;;;;7.35;5.22;;;;;;;;;;4989463;28;20073;-63
2023/03/19 11:05:13;;;;;;;8.77;4.75;;;;;;;;;;4983756;28;20116;-63
2023/03/19 11:07:54;;;;;;;8.77;5.28;;;;;;;;;;4983046;28;20054;-68
2023/03/19 11:10:22;;;;;;;7.60;5.25;;;;;;;;;;4984220;28;20054;-59
2023/03/19 11:13:02;;;;;;;9.23;6.32;;;;;;;;;;4966674;28;20062;-60
2023/03/19 11:15:34;;;;;;;9.57;6.38;;;;;;;;;;4986231;28;20135;-59
2023/03/19 11:18:15;;;;;;;8.30;5.82;;;;;;;;;;4981195;28;20069;-59
2023/03/19 11:20:48;;;;;;;9.27;6.00;;;;;;;;;;4981499;28;20078;-60
2023/03/19 11:23:21;;;;;;;10.93;7.40;;;;;;;;;;4986555;28;20480;-60
2023/03/19 11:25:55;;;;;;;9.38;6.55;;;;;;;;;;4990562;28;20042;-53
2023/03/19 11:28:32;;;;;;;11.00;6.35;;;;;;;;;;4986661;28;20101;-57
2023/03/19 11:31:08;;;;;;;10.00;6.50;;;;;;;;;;4989520;28;20050;-55
2023/03/19 11:33:57;;;;;;;10.88;7.18;;;;;;;;;;4980815;28;20403;-54
2023/03/19 11:36:28;;;;;;;11.05;7.50;;;;;;;;;;4987189;28;20054;-63
2023/03/19 11:39:02;;;;;;;13.27;8.23;;;;;;;;;;4990189;28;20140;-58
2023/03/19 11:41:39;;;;;;;10.70;6.90;;;;;;;;;;4984119;28;20058;-57
2023/03/19 11:44:25;;;;;;;11.20;7.43;;;;;;;;;;4988022;28;20909;-58
2023/03/19 11:46:58;;;;;;;11.55;7.20;;;;;;;;;;4984203;28;20422;-58
2023/03/19 11:50:04;;;;;;;11.48;7.53;;;;;;;;;;4969207;28;20094;-58
2023/03/19 11:52:31;;;;;;;10.77;7.22;;;;;;;;;;4987303;28;20193;-57
2023/03/19 11:55:05;;;;;;;11.00;7.13;;;;;;;;;;4986862;28;20046;-60
2023/03/19 11:57:46;;;;;;;10.75;7.50;;;;;;;;;;4984210;28;20046;-60
2023/03/19 12:00:35;;;;;;;14.73;8.00;;;;;;;;;;4989169;28;20089;-60
2023/03/19 12:03:14;;;;;;;11.30;7.55;;;;;;;;;;4984327;28;20054;-60
2023/03/19 12:05:50;;;;;;;12.18;7.07;;;;;;;;;;4991194;28;20049;-67
2023/03/19 12:08:39;;;;;;;9.73;7.03;;;;;;;;;;4988048;28;20507;-60
2023/03/19 12:11:17;;;;;;;10.15;6.72;;;;;;;;;;4980844;28;20050;-60
2023/03/19 12:14:03;;;;;;;10.35;6.60;;;;;;;;;;4986986;28;20196;-60
2023/03/19 12:16:41;;;;;;;11.77;7.85;;;;;;;;;;4982701;28;20264;-60
2023/03/19 12:19:14;;;;;;;10.23;7.00;;;;;;;;;;4984532;28;20059;-60
2023/03/19 12:21:58;;;;;;;10.05;7.15;;;;;;;;;;4983829;28;20532;-60
2023/03/19 12:24:55;;;;;;;9.55;6.78;;;;;;;;;;4983340;28;20596;-57
2023/03/19 12:27:35;;;;;;;10.07;7.10;;;;;;;;;;4979978;28;20054;-59
2023/03/19 12:30:18;;;;;;;8.50;6.13;;;;;;;;;;4987785;28;20416;-59
2023/03/19 12:32:45;;;;;;;11.93;6.00;;;;;;;;;;4986229;28;20042;-53
2023/03/19 12:35:27;;;;;;;8.77;6.72;;;;;;;;;;4984547;28;20101;-60
2023/03/19 12:38:06;;;;;;;8.77;6.05;;;;;;;;;;4980677;28;20055;-64
2023/03/19 12:40:47;;;;;;;9.23;6.25;;;;;;;;;;4984740;28;20102;-64
2023/03/19 12:43:33;;;;;;;8.40;5.93;;;;;;;;;;4986366;28;20133;-64
2023/03/19 12:46:07;;;;;;;7.00;5.32;;;;;;;;;;4991522;28;20189;-64
2023/03/19 12:48:42;;;;;;;10.15;6.53;;;;;;;;;;4983451;28;20589;-64
2023/03/19 12:51:19;;;;;;;14.95;5.05;;;;;;;;;;4985949;28;20054;-58
2023/03/19 12:53:46;;;;;;;7.13;5.20;;;;;;;;;;4989333;28;20061;-58
2023/03/19 12:56:19;;;;;;;8.60;5.65;;;;;;;;;;4989456;28;20050;-59
2023/03/19 12:59:19;;;;;;;17.02;9.93;;;;;;;;;;4984330;28;20142;-58
2023/03/19 13:02:09;;;;;;;8.02;5.88;;;;;;;;;;4972797;28;20613;-58
2023/03/19 13:04:43;;;;;;;14.35;11.52;;;;;;;;;;4981143;28;20054;-60
2023/03/19 13:07:22;;;;;;;12.57;10.13;;;;;;;;;;4973654;28;20050;-60
2023/03/19 13:09:52;;;;;;;24.95;20.83;;;;;;;;;;4972312;28;21150;-60
2023/03/19 13:12:28;;;;;;;13.20;10.43;;;;;;;;;;4980321;28;20540;-61
2023/03/19 13:15:00;;;;;;;6.68;5.50;;;;;;;;;;4969327;28;20051;-61
2023/03/19 13:17:57;;;;;;;7.28;5.25;;;;;;;;;;4976359;28;20752;-59
2023/03/19 13:20:24;;;;;;;6.20;4.82;;;;;;;;;;4962963;28;20057;-67
2023/03/19 13:23:01;;;;;;;6.30;4.90;;;;;;;;;;4962377;28;20078;-68
2023/03/19 13:25:40;;;;;;;6.00;4.05;;;;;;;;;;4979486;28;20149;-67
2023/03/19 13:28:11;;;;;;;6.00;4.40;;;;;;;;;;4982999;28;20050;-68
2023/03/19 13:31:10;;;;;;;6.53;4.38;;;;;;;;;;4981095;28;20413;-64
2023/03/19 13:33:39;;;;;;;7.32;3.60;;;;;;;;;;4977941;28;20050;-64
2023/03/19 13:36:13;;;;;;;4.55;3.70;;;;;;;;;;4968712;28;20055;-64
2023/03/19 13:38:44;;;;;;;5.28;3.55;;;;;;;;;;4971541;28;20058;-65
2023/03/19 13:41:19;;;;;;;;;;;;;;;;;;4979612;28;20057;-64
2023/03/19 13:44:06;;;;;;;6.20;4.10;;;;;;;;;;4978291;28;19936;-64
2023/03/19 13:46:38;;;;;;;5.65;4.18;;;;;;;;;;4973355;28;20054;-64
2023/03/19 13:49:25;;;;;;;5.35;4.03;;;;;;;;;;4980934;28;20050;-61
2023/03/19 13:52:03;;;;;;;6.28;4.30;;;;;;;;;;4982921;28;20192;-63
2023/03/19 13:54:35;;;;;;;5.45;4.20;;;;;;;;;;4975775;28;20064;-63
2023/03/19 13:57:13;;;;;;;5.68;4.10;;;;;;;;;;4974326;28;20429;-61
2023/03/19 13:59:45;;;;;;;4.55;3.83;;;;;;;;;;4973902;28;20110;-61
2023/03/19 14:02:26;;;;;;;5.82;3.95;;;;;;;;;;4972885;28;20057;-61
2023/03/19 14:04:58;;;;;;;6.40;4.00;;;;;;;;;;4982295;28;20051;-61
2023/03/19 14:07:42;;;;;;;6.22;4.18;;;;;;;;;;4979411;28;20054;-55
2023/03/19 14:10:19;;;;;;;9.13;3.83;;;;;;;;;;4987832;28;20592;-63
2023/03/19 14:13:01;;;;;;;6.80;4.72;;;;;;;;;;4983797;28;20596;-63
2023/03/19 14:15:29;;;;;;;4.80;3.85;;;;;;;;;;4986067;28;20078;-63
2023/03/19 14:18:05;;;;;;;6.20;4.28;;;;;;;;;;4987283;28;20056;-63
2023/03/19 14:20:33;;;;;;;7.40;4.45;;;;;;;;;;4987084;28;20602;-64
2023/03/19 14:23:09;;;;;;;6.22;4.32;;;;;;;;;;4982847;28;20149;-63
2023/03/19 14:26:04;;;;;;;7.43;4.32;;;;;;;;;;4984291;28;20153;-60
2023/03/19 14:28:41;;;;;;;5.22;4.28;;;;;;;;;;4979650;28;20524;-59
2023/03/19 14:31:18;;;;;;;6.15;4.22;;;;;;;;;;4990708;28;20465;-59
2023/03/19 14:34:10;;;;;;;5.07;3.80;;;;;;;;;;4985373;28;20525;-60
2023/03/19 14:36:40;;;;;;;6.82;4.57;;;;;;;;;;4978172;28;20140;-60
2023/03/19 14:39:17;;;;;;;6.43;4.30;;;;;;;;;;4985509;28;20581;-57
2023/03/19 14:41:45;;;;;;;5.22;3.92;;;;;;;;;;4983620;28;20056;-54
2023/03/19 14:44:31;;;;;;;5.18;3.63;;;;;;;;;;4983747;28;20065;-59
2023/03/19 14:47:05;;;;;;;4.13;3.47;;;;;;;;;;4977277;28;20524;-58
2023/03/19 14:50:11;;;;;;;5.50;4.03;;;;;;;;;;4983912;28;20076;-59
2023/03/19 14:53:02;;;;;;;5.97;4.32;;;;;;;;;;4949879;28;20081;-57
2023/03/19 14:55:37;;;;;;;6.32;4.40;;;;;;;;;;4959009;28;20062;-59
2023/03/19 14:58:05;;;;;;;6.40;4.47;;;;;;;;;;4972122;28;20045;-56
2023/03/19 15:00:39;;;;;;;7.30;5.35;;;;;;;;;;4975521;28;20089;-55
2023/03/19 15:03:36;;;;;;;8.50;5.35;;;;;;;;;;4978066;28;20086;-59
2023/03/19 15:06:12;;;;;;;7.40;5.32;;;;;;;;;;4980141;28;20061;-58